Latest Weather Observations for Pallamana

IDS60901

Issued at 9:51 am CST Wednesday 28 September 2022 (issued every 10 minutes, with the page automatically refreshed every 10 minutes)

About weather observations | Map of Adelaide area stations | Latest observations for Adelaide area | Other Formats
Station Details ID: 024584 Name: PALLAMANA AERODROME Lat: -35.06 Lon: 139.23 Height: 45.0 m
Data from the previous 72 hours. | See also: Recent months at Pallamana
Date/Time
CST
Temp
°C
App
Temp
°C
Dew
Point
°C
Rel
Hum
%
Delta-T
°C
Wind Press
QNH
hPa
Press
MSL
hPa
Rain since
9am
mm
Dir  Spd
km/h
Gust
km/h
Spd
kts
Gust
kts
28/09:30am 13.5 9.9 10.7 83 1.5 S 20 28 11 15 1023.5 1023.5 0.0
28/09:00am 14.1 11.1 12.1 88 1.1 SSW 19 30 10 16 1023.4 1023.4 3.0
28/08:30am 12.8 9.1 11.4 91 0.7 SSW 22 32 12 17 1023.1 1023.1 3.0
28/08:09am 12.7 9.5 11.4 92 0.7 S 19 28 10 15 1023.1 1023.1 3.0
28/08:00am 12.7 9.7 11.8 94 0.5 S 19 28 10 15 1023.0 1023.0 3.0
28/07:57am 12.7 10.1 12.1 96 0.3 S 17 28 9 15 1023.0 1023.0 3.0
28/07:30am 11.7 9.7 11.5 99 0.1 SSW 13 19 7 10 1022.8 1022.8 3.0
28/07:00am 10.6 7.6 10.6 100 0.0 SW 17 19 9 10 1022.5 1022.5 3.0
28/06:30am 10.3 6.8 10.3 100 0.0 SW 19 24 10 13 1022.3 1022.3 3.0
28/06:00am 10.0 6.8 10.0 100 0.0 SW 17 20 9 11 1021.9 1021.9 3.0
28/05:30am 9.3 6.3 9.3 100 0.0 SW 15 19 8 10 1021.5 1021.5 3.0
28/05:00am 9.7 6.1 9.7 100 0.0 SW 19 22 10 12 1021.2 1021.2 3.0
28/04:30am 10.1 6.6 10.1 100 0.0 SW 19 22 10 12 1021.0 1021.0 3.0
28/04:00am 10.4 6.8 10.4 100 0.0 SW 20 24 11 13 1020.8 1020.8 3.0
28/03:30am 10.4 7.0 10.4 100 0.0 SW 19 24 10 13 1020.6 1020.6 3.0
28/03:00am 10.5 6.9 10.5 100 0.0 SW 20 24 11 13 1020.6 1020.6 3.0
28/02:38am 10.9 7.4 10.9 100 0.0 SW 20 26 11 14 1020.6 1020.6 3.0
28/02:30am 11.0 7.5 11.0 100 0.0 SW 20 26 11 14 1020.6 1020.6 3.0
28/02:25am 11.0 7.5 11.0 100 0.0 SW 20 28 11 15 1020.6 1020.6 3.0
28/02:23am 11.0 7.5 11.0 100 0.0 SW 20 28 11 15 1020.6 1020.6 3.0
28/02:05am 10.8 7.3 10.8 100 0.0 SW 20 26 11 14 1020.8 1020.8 3.0
28/02:00am 10.8 6.9 10.8 100 0.0 SW 22 28 12 15 1020.9 1020.9 3.0
28/01:38am 10.7 7.3 10.7 100 0.0 SW 19 24 10 13 1021.0 1021.0 3.0
28/01:30am 10.7 7.1 10.7 100 0.0 SW 20 30 11 16 1021.1 1021.1 3.0
28/01:24am 10.7 7.1 10.7 100 0.0 SW 20 30 11 16 1021.2 1021.2 3.0
28/01:16am 10.6 7.2 10.6 100 0.0 WSW 19 24 10 13 1021.1 1021.1 3.0
28/01:03am 10.8 7.5 10.8 100 0.0 SW 19 24 10 13 1021.3 1021.3 3.0
28/01:00am 10.8 7.5 10.8 100 0.0 SW 19 24 10 13 1021.3 1021.3 3.0
28/12:59am 10.8 7.5 10.8 100 0.0 SW 19 24 10 13 1021.4 1021.4 3.0
28/12:49am 10.8 7.8 10.8 100 0.0 SW 17 22 9 12 1021.4 1021.4 3.0
28/12:30am 10.4 7.3 10.4 100 0.0 SW 17 22 9 12 1021.3 1021.3 3.0
28/12:00am 10.5 6.8 10.3 99 0.1 SW 20 30 11 16 1021.3 1021.3 3.0
 
Date/Time
CST
Temp
°C
App
Temp
°C
Dew
Point
°C
Rel
Hum
%
Delta-T
°C
Wind Press
QNH
hPa
Press
MSL
hPa
Rain since
9am
mm
Dir  Spd
km/h
Gust
km/h
Spd
kts
Gust
kts
27/11:57pm 10.6 7.0 10.4 99 0.1 SW 20 30 11 16 1021.3 1021.3 3.0
27/11:30pm 10.6 6.6 10.6 100 0.0 SW 22 30 12 16 1021.3 1021.3 3.0
27/11:28pm 10.6 7.0 10.6 100 0.0 WSW 20 30 11 16 1021.3 1021.3 3.0
27/11:00pm 10.1 6.4 10.1 100 0.0 WSW 20 24 11 13 1021.1 1021.1 3.0
27/10:30pm 10.3 6.6 10.1 99 0.1 SW 20 26 11 14 1021.1 1021.1 3.0
27/10:00pm 10.1 6.9 9.8 98 0.2 SW 17 22 9 12 1021.2 1021.2 3.0
27/09:30pm 10.1 6.4 9.5 96 0.3 SW 19 22 10 12 1021.3 1021.3 3.0
27/09:00pm 10.5 6.3 9.9 96 0.3 SW 22 32 12 17 1021.3 1021.3 3.0
27/08:30pm 11.0 7.0 10.4 96 0.3 SW 22 30 12 16 1021.3 1021.3 3.0
27/08:00pm 11.2 7.2 10.6 96 0.3 SW 22 30 12 16 1021.1 1021.1 3.0
27/07:30pm 11.2 7.2 10.6 96 0.3 SW 22 28 12 15 1020.8 1020.8 3.0
27/07:00pm 10.8 6.0 10.2 96 0.3 SW 26 37 14 20 1020.5 1020.5 3.0
27/06:47pm 10.9 5.7 10.3 96 0.3 SW 28 39 15 21 1020.4 1020.4 3.0
27/06:34pm 11.3 6.6 10.7 96 0.3 SW 26 39 14 21 1020.4 1020.4 3.0
27/06:30pm 11.4 6.7 10.6 95 0.4 SW 26 37 14 20 1020.3 1020.3 2.8
27/06:00pm 11.5 6.5 10.9 96 0.3 SW 28 35 15 19 1020.0 1020.0 2.8
27/05:30pm 11.7 7.1 11.2 97 0.3 SW 26 39 14 21 1019.4 1019.4 2.8
27/05:00pm 11.6 6.2 11.0 96 0.3 SSW 30 46 16 25 1019.2 1019.2 2.8
27/04:47pm 11.9 7.1 11.6 98 0.2 SSW 28 39 15 21 1018.9 1018.9 2.8
27/04:46pm 11.9 7.1 11.6 98 0.2 SSW 28 39 15 21 1018.9 1018.9 2.8
27/04:30pm 12.1 7.8 11.9 99 0.1 SSW 26 35 14 19 1018.8 1018.8 2.8
27/04:27pm 12.0 7.2 11.7 98 0.2 SSW 28 35 15 19 1018.7 1018.7 2.6
27/04:26pm 12.1 7.3 11.8 98 0.2 SSW 28 41 15 22 1018.7 1018.7 2.6
27/04:22pm 12.2 7.4 11.7 97 0.3 SSW 28 41 15 22 1018.7 1018.7 2.4
27/04:02pm 12.5 6.9 11.4 93 0.6 SW 32 50 17 27 1018.6 1018.6 2.4
27/04:00pm 13.2 7.7 11.8 91 0.7 SW 32 50 17 27 1018.5 1018.5 2.2
27/03:30pm 14.5 8.5 10.9 79 1.9 SSW 33 46 18 25 1018.1 1018.1 2.2
27/03:00pm 16.2 10.6 11.6 74 2.5 SW 32 43 17 23 1017.7 1017.7 2.2
27/02:30pm 15.0 10.0 11.0 77 2.1 SSW 28 41 15 22 1017.9 1017.9 2.2
27/02:00pm 15.4 10.1 11.4 77 2.2 SSW 30 41 16 22 1018.0 1018.0 2.2
27/01:30pm 16.5 10.7 10.8 69 3.0 SSW 32 43 17 23 1017.9 1017.9 2.2
27/01:00pm 15.6 9.9 9.7 68 3.1 SSW 30 44 16 24 1017.9 1017.9 2.0
27/12:30pm 15.5 10.7 10.3 71 2.7 S 26 41 14 22 1018.1 1018.1 2.0
27/12:00pm 14.4 9.8 11.2 81 1.7 S 26 35 14 19 1018.2 1018.2 2.0
27/11:43am 14.6 9.4 12.8 89 1.0 SSW 32 39 17 21 1018.3 1018.3 2.0
27/11:30am 14.3 10.3 12.9 91 0.8 SSW 26 37 14 20 1018.4 1018.4 2.0
27/11:19am 13.4 8.9 12.5 94 0.5 SSW 28 41 15 22 1018.4 1018.4 2.0
27/11:12am 13.0 8.4 12.4 96 0.3 SSW 28 41 15 22 1018.5 1018.5 2.0
27/11:00am 11.7 7.1 11.2 97 0.3 SSW 26 35 14 19 1018.4 1018.4 2.0
27/10:49am 12.8 8.1 11.9 94 0.5 SSW 28 39 15 21 1018.4 1018.4 1.4
27/10:48am 12.8 8.1 11.9 94 0.5 SSW 28 39 15 21 1018.3 1018.3 1.2
27/10:30am 13.0 7.0 12.1 94 0.5 SW 35 44 19 24 1018.1 1018.1 1.2
27/10:19am 13.1 8.4 12.0 93 0.6 SSW 28 39 15 21 1018.1 1018.1 1.2
27/10:17am 13.3 8.8 12.5 95 0.4 SSW 28 39 15 21 1018.1 1018.1 1.2
27/10:00am 12.5 7.8 12.0 97 0.3 SW 28 37 15 20 1018.2 1018.2 1.2
27/09:42am 12.8 7.7 11.9 94 0.5 SW 30 41 16 22 1018.1 1018.1 0.6
27/09:30am 12.1 6.9 11.6 97 0.3 SW 30 37 16 20 1018.1 1018.1 0.4
27/09:19am 12.2 7.5 11.9 98 0.2 SW 28 39 15 21 1018.0 1018.0 0.2
27/09:11am 11.7 6.4 11.4 98 0.2 SW 30 39 16 21 1018.0 1018.0 0.2
27/09:00am 11.4 6.0 10.9 97 0.3 SW 30 39 16 21 1017.9 1017.9 1.4
27/08:59am 11.5 6.2 11.2 98 0.2 SW 30 37 16 20 1018.0 1018.0 1.4
27/08:48am 11.5 5.7 10.9 96 0.3 WSW 32 43 17 23 1017.9 1017.9 0.6
27/08:46am 11.4 5.5 10.6 95 0.4 WSW 32 43 17 23 1017.9 1017.9 0.6
27/08:30am 11.5 5.6 10.4 93 0.6 WSW 32 41 17 22 1017.8 1017.8 0.2
27/08:29am 11.6 5.7 10.5 93 0.6 WSW 32 41 17 22 1017.8 1017.8 0.2
27/08:12am 11.3 5.3 10.2 93 0.6 WSW 32 44 17 24 1017.6 1017.6 0.2
27/08:00am 11.6 5.5 9.7 88 1.0 WSW 32 43 17 23 1017.5 1017.5 0.2
27/07:30am 10.8 4.7 9.6 92 0.6 WSW 32 43 17 23 1017.2 1017.2 0.2
27/07:00am 10.5 4.9 8.9 90 0.8 WSW 28 37 15 20 1017.0 1017.0 0.2
27/06:30am 9.4 5.4 8.3 93 0.5 W 19 26 10 14 1016.7 1016.7 0.2
27/06:00am 9.1 4.4 7.9 92 0.6 WSW 22 30 12 16 1016.4 1016.4 0.2
27/05:30am 9.1 4.4 7.9 92 0.6 WSW 22 30 12 16 1016.2 1016.2 0.2
27/05:00am 8.8 4.5 8.0 95 0.4 WSW 20 24 11 13 1016.1 1016.1 0.2
27/04:30am 8.8 4.5 8.0 95 0.4 WSW 20 26 11 14 1015.8 1015.8 0.2
27/04:00am 8.9 3.9 8.0 94 0.4 WSW 24 30 13 16 1015.7 1015.7 0.2
27/03:30am 8.8 3.3 7.4 91 0.7 WSW 26 33 14 18 1015.6 1015.6 0.0
27/03:00am 8.7 3.8 7.0 89 0.8 WSW 22 28 12 15 1015.6 1015.6 0.0
27/02:30am 8.5 4.4 6.3 86 1.0 W 17 22 9 12 1015.7 1015.7 0.0
27/02:00am 8.0 3.9 6.3 89 0.8 W 17 20 9 11 1015.8 1015.8 0.0
27/01:30am 7.8 4.1 6.1 89 0.8 W 15 17 8 9 1016.1 1016.1 0.0
27/01:00am 8.3 5.5 6.8 90 0.7 WSW 11 13 6 7 1016.4 1016.4 0.0
27/12:30am 9.1 5.9 6.9 86 1.0 SW 13 17 7 9 1016.7 1016.7 0.0
27/12:00am 9.7 4.8 7.0 83 1.3 WSW 22 28 12 15 1016.6 1016.6 0.0
 
Date/Time
CST
Temp
°C
App
Temp
°C
Dew
Point
°C
Rel
Hum
%
Delta-T
°C
Wind Press
QNH
hPa
Press
MSL
hPa
Rain since
9am
mm
Dir  Spd
km/h
Gust
km/h
Spd
kts
Gust
kts
26/11:30pm 9.1 4.8 7.7 91 0.7 W 20 24 11 13 1016.6 1016.6 0.0
26/11:00pm 8.6 5.2 7.5 93 0.5 W 15 19 8 10 1016.5 1016.5 0.0
26/10:30pm 8.7 6.0 7.2 90 0.7 SW 11 15 6 8 1016.7 1016.7 0.0
26/10:00pm 9.9 6.2 8.0 88 0.9 WSW 17 20 9 11 1016.7 1016.7 0.0
26/09:30pm 10.6 7.1 8.9 89 0.8 WSW 17 22 9 12 1016.6 1016.6 0.0
26/09:00pm 10.8 6.9 9.6 92 0.6 WSW 20 26 11 14 1016.7 1016.7 0.0
26/08:30pm 11.5 5.4 9.9 90 0.8 SW 32 39 17 21 1016.6 1016.6 0.0
26/08:18pm 11.8 6.5 9.7 87 1.1 WSW 28 44 15 24 1016.3 1016.3 0.0
26/08:00pm 11.8 10.2 10.2 90 0.8 NW 9 11 5 6 1016.3 1016.3 0.0
26/07:30pm 11.7 9.2 9.6 87 1.1 WNW 13 17 7 9 1016.0 1016.0 0.0
26/07:00pm 12.2 8.8 9.0 81 1.6 WNW 17 20 9 11 1015.9 1015.9 0.0
26/06:30pm 12.9 9.0 8.8 76 2.1 W 19 26 10 14 1015.8 1015.8 0.0
26/06:00pm 13.3 9.3 8.2 71 2.5 WNW 19 26 10 14 1015.6 1015.6 0.0
26/05:30pm 14.0 9.6 7.5 65 3.2 W 20 26 11 14 1015.4 1015.4 0.0
26/05:00pm 14.7 10.4 7.0 60 3.8 W 19 26 10 14 1015.2 1015.2 0.0
26/04:30pm 15.3 11.0 7.8 61 3.7 W 20 30 11 16 1015.2 1015.2 0.0
26/04:00pm 16.4 11.4 7.9 57 4.3 W 24 33 13 18 1015.1 1015.1 0.0
26/03:30pm 16.6 13.0 9.8 64 3.6 WSW 19 30 10 16 1015.0 1015.0 0.0
26/03:00pm 16.3 11.8 9.9 66 3.4 W 24 32 13 17 1015.1 1015.1 0.0
26/02:30pm 15.7 11.8 12.1 79 2.0 SW 24 33 13 18 1015.3 1015.3 0.0
26/02:00pm 16.2 13.4 13.1 82 1.7 SSW 20 30 11 16 1015.3 1015.3 0.0
26/01:30pm 14.7 11.0 12.7 88 1.1 SW 24 32 13 17 1015.5 1015.5 0.0
26/01:00pm 15.9 11.9 13.0 83 1.6 SSW 26 32 14 17 1015.5 1015.5 0.0
26/12:30pm 15.4 11.0 12.9 85 1.4 SSW 28 37 15 20 1015.6 1015.6 0.0
26/12:00pm 14.8 10.0 12.8 88 1.1 SSW 30 41 16 22 1015.7 1015.7 0.0
26/11:30am 17.0 14.2 12.7 76 2.4 SW 19 28 10 15 1015.7 1015.7 0.0
26/11:00am 15.9 13.8 12.5 80 1.9 SW 15 19 8 10 1015.8 1015.8 0.0
26/10:30am 16.3 13.7 13.2 82 1.7 SW 19 28 10 15 1015.9 1015.9 0.0
26/10:00am 15.1 12.3 13.3 89 1.0 SW 20 24 11 13 1016.0 1016.0 0.0
26/09:57am 15.0 12.1 13.0 88 1.1 SW 20 24 11 13 1016.0 1016.0 0.0
26/09:30am 14.7 12.1 13.2 91 0.8 SW 19 26 10 14 1015.8 1015.8 0.0
26/09:00am 13.9 11.7 13.4 97 0.3 SW 17 20 9 11 1015.8 1015.8 6.4
26/08:30am 13.7 12.4 13.7 100 0.0 SW 13 19 7 10 1015.5 1015.5 6.4
26/08:00am 13.3 11.9 13.3 100 0.0 SW 13 15 7 8 1015.6 1015.6 6.4
26/07:30am 13.0 12.2 13.0 100 0.0 SW 9 15 5 8 1015.6 1015.6 6.4
26/07:13am 12.4 11.4 12.4 100 0.0 WSW 9 11 5 6 1015.4 1015.4 6.4
26/07:00am 12.2 10.8 12.2 100 0.0 WSW 11 13 6 7 1015.4 1015.4 6.4
26/06:30am 11.5 9.1 11.5 100 0.0 WSW 15 17 8 9 1015.1 1015.1 6.4
26/06:00am 10.6 10.8 10.6 100 0.0 CALM 0 0 0 0 1014.9 1014.9 6.4
26/05:30am 10.2 10.3 10.2 100 0.0 CALM 0 0 0 0 1014.8 1014.8 6.4
26/05:00am 9.9 9.9 9.9 100 0.0 CALM 0 0 0 0 1014.6 1014.6 6.4
26/04:30am 9.5 8.1 9.5 100 0.0 N 7 9 4 5 1014.5 1014.5 6.4
26/04:00am 8.7 8.4 8.7 100 0.0 CALM 0 0 0 0 1014.2 1014.2 6.4
26/03:30am 9.1 8.9 9.1 100 0.0 CALM 0 0 0 0 1014.0 1014.0 6.4
26/03:00am 9.4 9.3 9.4 100 0.0 CALM 0 0 0 0 1014.0 1014.0 6.4
26/02:30am 9.7 9.7 9.7 100 0.0 CALM 0 0 0 0 1014.2 1014.2 6.4
26/02:00am 10.1 9.8 10.1 100 0.0 W 2 7 1 4 1014.6 1014.6 6.4
26/01:30am 10.8 9.7 10.8 100 0.0 WNW 7 9 4 5 1014.9 1014.9 6.4
26/01:00am 11.0 11.3 11.0 100 0.0 CALM 0 0 0 0 1015.2 1015.2 6.4
26/12:30am 11.4 10.5 11.4 100 0.0 W 7 11 4 6 1015.4 1015.4 6.4
26/12:00am 11.3 10.4 11.3 100 0.0 W 7 9 4 5 1015.8 1015.8 6.4
 
Date/Time
CST
Temp
°C
App
Temp
°C
Dew
Point
°C
Rel
Hum
%
Delta-T
°C
Wind Press
QNH
hPa
Press
MSL
hPa
Rain since
9am
mm
Dir  Spd
km/h
Gust
km/h
Spd
kts
Gust
kts
25/11:30pm 11.4 10.7 11.4 100 0.0 WNW 6 7 3 4 1016.0 1016.0 6.4
25/11:00pm 11.7 11.1 11.7 100 0.0 SW 6 7 3 4 1016.2 1016.2 6.4
25/10:30pm 11.7 10.9 11.7 100 0.0 SSW 7 9 4 5 1016.3 1016.3 6.4
25/10:07pm 11.9 11.2 11.9 100 0.0 SSE 7 11 4 6 1016.5 1016.5 6.2
25/10:00pm 12.0 10.9 12.0 100 0.0 SSE 9 11 5 6 1016.6 1016.6 6.2
25/09:37pm 12.2 11.6 12.2 100 0.0 S 7 9 4 5 1017.0 1017.0 5.2
25/09:30pm 12.2 11.7 12.2 100 0.0 S 6 9 3 5 1017.1 1017.1 4.8
25/09:28pm 12.2 11.6 12.2 100 0.0 S 7 9 4 5 1017.0 1017.0 4.8
25/09:15pm 12.3 11.7 12.3 100 0.0 S 7 9 4 5 1016.9 1016.9 4.2
25/09:00pm 12.4 11.8 12.4 100 0.0 SSW 7 11 4 6 1016.9 1016.9 3.6
25/08:30pm 12.4 11.4 12.4 100 0.0 SSW 9 11 5 6 1016.7 1016.7 3.0
25/08:00pm 12.8 11.9 12.6 99 0.1 SSW 9 11 5 6 1016.6 1016.6 2.2
25/07:30pm 13.1 11.9 12.9 99 0.1 SSW 11 15 6 8 1016.2 1016.2 1.8
25/07:00pm 13.6 12.6 13.3 98 0.2 SW 11 13 6 7 1015.8 1015.8 1.4
25/06:30pm 13.5 11.9 12.7 95 0.4 SW 13 17 7 9 1015.3 1015.3 1.2
25/06:00pm 13.5 12.6 12.6 94 0.5 SSW 9 13 5 7 1014.8 1014.8 1.2
25/05:30pm 14.1 13.7 13.1 94 0.6 S 7 11 4 6 1014.2 1014.2 1.0
25/05:00pm 14.5 13.8 13.2 92 0.7 SSW 9 13 5 7 1014.2 1014.2 1.0
25/04:30pm 15.9 15.6 14.3 90 0.9 S 9 13 5 7 1014.1 1014.1 0.8
25/04:00pm 16.8 17.1 14.4 86 1.4 SSE 6 9 3 5 1013.5 1013.5 0.4
25/03:30pm 17.7 17.6 13.4 76 2.4 S 6 7 3 4 1013.7 1013.7 0.2
25/03:00pm 18.3 18.6 13.4 73 2.8 S 4 9 2 5 1013.5 1013.5 0.0
25/02:30pm 18.7 17.8 11.5 63 4.0 ESE 7 9 4 5 1013.5 1013.5 0.0
25/02:00pm 18.5 17.5 12.3 67 3.4 ESE 9 11 5 6 1013.6 1013.6 0.0
25/01:30pm 18.4 17.8 12.2 67 3.4 E 7 9 4 5 1014.0 1014.0 0.0
25/01:00pm 17.9 17.2 11.9 68 3.3 E 7 9 4 5 1014.2 1014.2 0.0
25/12:30pm 18.1 16.6 11.9 67 3.4 E 11 15 6 8 1014.3 1014.3 0.0
25/12:00pm 18.1 16.8 11.4 65 3.7 ENE 9 11 5 6 1014.4 1014.4 0.0
25/11:30am 18.2 16.1 11.0 63 3.9 NE 13 17 7 9 1014.8 1014.8 0.0
25/11:00am 18.4 17.6 11.2 63 3.9 SE 6 7 3 4 1014.9 1014.9 0.0
25/10:30am 18.1 17.2 10.7 62 4.0 N 6 7 3 4 1015.0 1015.0 0.0
25/10:00am 18.1 15.5 9.5 57 4.5 N 13 20 7 11 1015.5 1015.5 0.0

Latest Capital City Observations: Canberra | Sydney | Melbourne | Brisbane | Adelaide | Perth | Hobart | Darwin

Other formats

Comma delimited format used in spreadsheet applications
http://www.bom.gov.au/fwo/IDS60901/IDS60901.95818.axf

JavaScript Object Notation format (JSON) in row-major order
http://www.bom.gov.au/fwo/IDS60901/IDS60901.95818.json

Data quality

Most of these data are generated automatically and are frequently updated. Quality checks on data are not normally performed. It is possible for incorrect values to appear. Refer to information at About Latest Weather Observations and please check the disclaimer before using these data.